This is the latest recevied weather packets stored in our database for station/object SY3EBK-13. If no packets are shown the sender has not sent any weather packets the latest 10 day(s).
| Time | Temp. | Humidity | Pressure | Rain* | Wind** | Luminosity | Snow |
|---|---|---|---|---|---|---|---|
| 1787912453 | 31.67° C | 31% | 916.4 hPa | - | 0 m/s | - | - |
| 1787911553 | 31.67° C | 32% | 916.7 hPa | - | 0 m/s | - | - |
| 1787910653 | 31.67° C | 32% | 916.8 hPa | - | 0 m/s | - | - |
| 1787909753 | 32.22° C | 32% | 916.9 hPa | - | 0 m/s | - | - |
| 1787908853 | 31.67° C | 33% | 917 hPa | - | 0 m/s | - | - |
| 1787907953 | 31.11° C | 34% | 917 hPa | - | 0 m/s | - | - |
| 1787907053 | 30.56° C | 35% | 917.1 hPa | - | 0 m/s | - | - |
| 1787906153 | 30° C | 36% | 917.3 hPa | - | 0 m/s | - | - |
| 1787905253 | 29.44° C | 37% | 917.5 hPa | - | 0 m/s | - | - |
| 1787904353 | 29.44° C | 37% | 917.4 hPa | - | 0 m/s | - | - |
| 1787903453 | 28.89° C | 38% | 917.3 hPa | - | 0 m/s | - | - |
| 1787902553 | 28.33° C | 39% | 917.4 hPa | - | 0 m/s | - | - |
| 1787901653 | 28.33° C | 40% | 917.4 hPa | - | 0 m/s | - | - |
| 1787900753 | 27.78° C | 41% | 917.2 hPa | - | 0 m/s | - | - |
| 1787899853 | 27.22° C | 43% | 917.1 hPa | - | 0 m/s | - | - |
| 1787898953 | 26.67° C | 45% | 917 hPa | - | 0 m/s | - | - |
| 1787898053 | 26.11° C | 47% | 916.9 hPa | - | 0 m/s | - | - |
| 1787897153 | 25.56° C | 47% | 916.9 hPa | - | 0 m/s | - | - |
| 1787896253 | 25° C | 51% | 917.1 hPa | - | 0 m/s | - | - |
| 1787895353 | 24.44° C | 50% | 917.1 hPa | - | 0 m/s | - | - |
| 1787894453 | 24.44° C | 49% | 917 hPa | - | 0 m/s | - | - |
| 1787893553 | 23.89° C | 51% | 917 hPa | - | 0 m/s | - | - |
| 1787892653 | 23.89° C | 49% | 916.9 hPa | - | 0 m/s | - | - |
| 1787891753 | 23.89° C | 49% | 916.8 hPa | - | 0 m/s | - | - |
| 1787890853 | 23.89° C | 47% | 916.8 hPa | - | 0 m/s | - | - |
* Rain since midnight (hover to see other rain measurements)
** Current wind speed in m/s (hover to see current wind gust speed)